Terminal Aerodrome Forecast
Issued by NWS

Home | Current Version | Previous Version | Text Only | Print | Product List | Glossary On
Versions: 1 2 3 4 5 6 7 8 9 10 11 12 13 14 15
000
FTAK31 PAJN 170500 RRA
TAFAYA
TAF
PAYA 170542Z 1706/1806 00000KT P6SM FEW100
     FM171500 VRB03KT P6SM BKN100
     FM172100 11004KT P6SM VCSH SCT030 BKN050
     FM180300 11004KT P6SM VCSH OVC025
      AMD LTD TO CLD VIS AND WIND 1706/1710=

USA.gov is the U.S. government's official web portal to all federal, state and local government web resources and services.